Time;durP1;ratioP1;P1;durP2;ratioP2;P2;SDS_P1;SDS_P2;PMS_P1;PMS_P2;Temp;Humidity;BMP_temperature;BMP_pressure;BME280_temperature;BME280_humidity;BME280_pressure;Samples;Min_cycle;Max_cycle;Signal;HPM_P1;HPM_P2
2021/04/22 00:01:54;;;;;;;34.25;24.73;;;307.20;1868.80;;;;;;5055575;28;20451;-70
2021/04/22 00:04:20;;;;;;;34.75;25.27;;;282.50;1843.20;;;;;;5055439;28;20444;-70
2021/04/22 00:06:51;;;;;;;32.67;25.27;;;307.20;1868.80;;;;;;5055506;28;20346;-70
2021/04/22 00:09:17;;;;;;;35.17;24.45;;;282.40;1843.20;;;;;;5055517;28;20462;-69
2021/04/22 00:11:44;;;;;;;30.38;21.67;;;282.50;1843.20;;;;;;5055487;28;20416;-71
2021/04/22 00:14:10;;;;;;;29.35;21.60;;;282.50;1843.20;;;;;;5055411;28;20358;-71
2021/04/22 00:16:37;;;;;;;28.65;21.02;;;282.50;1843.20;;;;;;5055353;28;20377;-71
2021/04/22 00:19:04;;;;;;;27.10;21.48;;;282.30;1868.80;;;;;;5055265;28;20432;-70
2021/04/22 00:21:30;;;;;;;27.73;22.25;;;282.30;1868.80;;;;;;5055555;28;20426;-71
2021/04/22 00:23:57;;;;;;;26.58;21.98;;;282.20;1894.40;;;;;;5055259;28;20381;-71
2021/04/22 00:26:23;;;;;;;29.30;22.20;;;282.00;1920.00;;;;;;5055185;28;20397;-71
2021/04/22 00:28:49;;;;;;;24.15;20.42;;;281.90;1945.60;;;;;;5055022;28;20072;-70
2021/04/22 00:31:16;;;;;;;27.23;21.08;;;281.90;1945.60;;;;;;5055131;28;20374;-70
2021/04/22 00:33:42;;;;;;;25.25;19.88;;;281.80;1945.60;;;;;;5055348;28;20025;-71
2021/04/22 00:36:08;;;;;;;30.88;21.17;;;281.70;1971.20;;;;;;5054970;28;20373;-71
2021/04/22 00:38:35;;;;;;;24.13;19.55;;;281.60;1971.20;;;;;;5054945;28;20373;-70
2021/04/22 00:41:01;;;;;;;23.40;18.77;;;281.60;1971.20;;;;;;5054904;28;20479;-71
2021/04/22 00:43:28;;;;;;;23.85;18.95;;;281.60;1971.20;;;;;;5054891;28;20404;-70
2021/04/22 00:45:54;;;;;;;23.25;18.50;;;281.60;1996.80;;;;;;5054831;28;20025;-70
2021/04/22 00:48:23;;;;;;;22.52;18.10;;;281.60;1971.20;;;;;;5054690;28;20447;-70
2021/04/22 00:50:50;;;;;;;23.77;18.48;;;256.90;1945.60;;;;;;5055022;28;20480;-73
2021/04/22 00:53:18;;;;;;;25.30;18.70;;;256.90;1945.60;;;;;;5054710;28;20389;-70
2021/04/22 00:55:44;;;;;;;23.08;18.80;;;281.60;1971.20;;;;;;5054542;28;20408;-70
2021/04/22 00:58:10;;;;;;;27.20;19.30;;;281.60;1971.20;;;;;;5054875;28;20404;-70
2021/04/22 01:00:57;;;;;;;24.42;18.95;;;281.60;1971.20;;;;;;5054636;28;20428;-71
2021/04/22 01:03:26;;;;;;;25.98;18.77;;;281.60;1971.20;;;;;;5054292;28;20410;-70
2021/04/22 01:05:56;;;;;;;25.10;19.00;;;256.90;1971.20;;;;;;5054468;28;20520;-70
2021/04/22 01:08:22;;;;;;;23.77;18.38;;;256.90;1945.60;;;;;;5054551;28;20474;-71
2021/04/22 01:10:49;;;;;;;24.20;18.10;;;281.60;1971.20;;;;;;5054377;28;20381;-70
2021/04/22 01:13:15;;;;;;;26.00;18.70;;;281.60;1971.20;;;;;;5054208;28;20434;-70
2021/04/22 01:15:42;;;;;;;26.38;18.08;;;281.60;1945.60;;;;;;5054284;28;20485;-70
2021/04/22 01:18:09;;;;;;;20.63;16.85;;;281.70;1945.60;;;;;;5054172;28;20401;-70
2021/04/22 01:20:53;;;;;;;20.35;15.85;;;281.70;1945.60;;;;;;5054482;28;20465;-71
2021/04/22 01:23:19;;;;;;;;;;;281.80;1945.60;;;;;;5054553;28;20477;-70
2021/04/22 01:25:51;;;;;;;19.58;16.63;;;281.90;1920.00;;;;;;5054031;28;20303;-71
2021/04/22 01:28:19;;;;;;;24.63;17.55;;;281.90;1920.00;;;;;;5053937;28;20381;-70
2021/04/22 01:30:51;;;;;;;25.58;19.70;;;282.00;1894.40;;;;;;5053972;28;20339;-71
2021/04/22 01:33:21;;;;;;;27.23;20.15;;;282.00;1894.40;;;;;;5054041;28;20528;-70
2021/04/22 01:35:51;;;;;;;23.20;17.77;;;282.10;1894.40;;;;;;5054179;28;20397;-70
2021/04/22 01:38:18;;;;;;;22.52;17.85;;;282.20;1894.40;;;;;;5053923;28;20359;-70
2021/04/22 01:40:45;;;;;;;24.73;17.10;;;282.20;1894.40;;;;;;5053754;28;20369;-70
2021/04/22 01:43:11;;;;;;;24.55;17.15;;;282.00;1894.40;;;;;;5053759;28;20420;-70
2021/04/22 01:45:38;;;;;;;22.73;17.42;;;282.00;1894.40;;;;;;5053737;28;20371;-71
2021/04/22 01:48:04;;;;;;;22.60;16.52;;;282.00;1894.40;;;;;;5053616;28;20452;-70
2021/04/22 01:50:34;;;;;;;25.40;17.45;;;282.00;1894.40;;;;;;5053919;28;20417;-71
2021/04/22 01:53:00;;;;;;;23.88;16.95;;;282.00;1894.40;;;;;;5053687;28;20412;-71
2021/04/22 01:55:35;;;;;;;26.63;16.33;;;282.10;1894.40;;;;;;5053649;28;20384;-71
2021/04/22 01:58:02;;;;;;;21.45;15.75;;;282.00;1894.40;;;;;;5053634;28;20390;-71
2021/04/22 02:00:32;;;;;;;25.25;17.45;;;282.00;1894.40;;;;;;5053583;28;20408;-70
2021/04/22 02:02:58;;;;;;;25.58;17.42;;;281.90;1894.40;;;;;;5053565;28;20389;-71
2021/04/22 02:05:24;;;;;;;24.13;15.80;;;282.00;1894.40;;;;;;5053125;28;20422;-71
2021/04/22 02:07:51;;;;;;;23.60;16.65;;;282.10;1894.40;;;;;;5053043;28;20385;-71
2021/04/22 02:10:18;;;;;;;22.10;15.50;;;282.10;1868.80;;;;;;5053452;28;20083;-70
2021/04/22 02:12:44;;;;;;;22.17;15.43;;;282.00;1894.40;;;;;;5053633;28;20458;-70
2021/04/22 02:15:14;;;;;;;21.20;14.73;;;282.00;1894.40;;;;;;5053379;28;20423;-70
2021/04/22 02:17:44;;;;;;;21.85;14.98;;;282.00;1894.40;;;;;;5053635;28;20414;-70
2021/04/22 02:20:12;;;;;;;20.60;14.95;;;281.90;1894.40;;;;;;5053326;28;20404;-70
2021/04/22 02:22:38;;;;;;;20.15;15.05;;;281.90;1894.40;;;;;;5053280;28;20339;-70
2021/04/22 02:25:07;;;;;;;19.70;14.82;;;281.90;1894.40;;;;;;5053279;28;20342;-70
2021/04/22 02:27:34;;;;;;;20.42;14.52;;;281.90;1894.40;;;;;;5053130;28;20482;-70
2021/04/22 02:30:00;;;;;;;17.48;13.88;;;281.80;1894.40;;;;;;5053243;28;20377;-71
2021/04/22 02:32:26;;;;;;;18.00;13.85;;;281.80;1920.00;;;;;;5053505;28;20028;-70
2021/04/22 02:34:52;;;;;;;18.23;13.93;;;281.70;1920.00;;;;;;5053134;28;20552;-71
2021/04/22 02:37:19;;;;;;;19.63;14.95;;;281.80;1920.00;;;;;;5053197;28;20384;-70
2021/04/22 02:39:45;;;;;;;18.15;15.07;;;281.80;1894.40;;;;;;5053178;28;20361;-70
2021/04/22 02:42:11;;;;;;;16.63;13.23;;;281.80;1894.40;;;;;;5053401;28;20431;-70
2021/04/22 02:44:37;;;;;;;16.30;13.35;;;281.70;1920.00;;;;;;5053139;28;20343;-70
2021/04/22 02:47:03;;;;;;;18.63;13.75;;;281.60;1920.00;;;;;;5052967;28;20527;-70
2021/04/22 02:49:29;;;;;;;18.08;13.85;;;281.60;1920.00;;;;;;5053043;28;20466;-70
2021/04/22 02:51:55;;;;;;;17.50;13.35;;;256.90;1894.40;;;;;;5053079;28;20025;-71
2021/04/22 02:54:21;;;;;;;16.75;13.48;;;281.60;1920.00;;;;;;5052993;28;20432;-70
2021/04/22 02:56:48;;;;;;;16.58;13.35;;;281.60;1920.00;;;;;;5052987;28;20416;-70
2021/04/22 02:59:14;;;;;;;17.13;13.63;;;281.60;1920.00;;;;;;5052989;28;20387;-70
2021/04/22 03:01:40;;;;;;;16.60;13.23;;;281.60;1920.00;;;;;;5052893;28;20370;-70
2021/04/22 03:04:06;;;;;;;17.58;13.15;;;281.60;1920.00;;;;;;5052596;28;20481;-70
2021/04/22 03:06:32;;;;;;;18.73;14.20;;;281.60;1920.00;;;;;;5052918;28;20420;-71
2021/04/22 03:08:58;;;;;;;21.65;16.33;;;281.70;1894.40;;;;;;5053020;28;20365;-70
2021/04/22 03:11:24;;;;;;;20.45;15.45;;;281.70;1894.40;;;;;;5052882;28;20392;-70
2021/04/22 03:13:50;;;;;;;16.70;13.38;;;281.60;1894.40;;;;;;5052868;28;20491;-70
2021/04/22 03:16:17;;;;;;;18.38;13.52;;;281.60;1894.40;;;;;;5052847;28;20400;-70
2021/04/22 03:18:43;;;;;;;17.65;13.90;;;281.60;1894.40;;;;;;5055891;28;20342;-70
2021/04/22 03:21:09;;;;;;;16.48;13.02;;;281.60;1894.40;;;;;;5056720;28;20360;-70
2021/04/22 03:23:35;;;;;;;19.92;13.55;;;281.70;1894.40;;;;;;5056403;28;20366;-70
2021/04/22 03:26:01;;;;;;;21.38;13.23;;;281.60;1894.40;;;;;;5056640;28;20393;-70
2021/04/22 03:28:27;;;;;;;17.35;12.82;;;256.80;1894.40;;;;;;5056163;28;20381;-70
2021/04/22 03:30:53;;;;;;;25.50;13.93;;;281.60;1894.40;;;;;;5056573;28;20450;-70
2021/04/22 03:33:20;;;;;;;16.33;12.45;;;281.60;1894.40;;;;;;5056450;28;20351;-70
2021/04/22 03:35:46;;;;;;;17.23;12.25;;;281.60;1894.40;;;;;;5056157;28;20365;-70
2021/04/22 03:38:13;;;;;;;20.50;12.57;;;281.60;1894.40;;;;;;5056462;28;20369;-70
2021/04/22 03:40:39;;;;;;;20.60;13.30;;;281.60;1894.40;;;;;;5056077;28;20350;-70
2021/04/22 03:43:05;;;;;;;16.98;12.93;;;256.90;1868.80;;;;;;5055963;28;20419;-70
2021/04/22 03:45:31;;;;;;;15.68;11.50;;;256.90;1868.80;;;;;;5055954;28;20369;-70
2021/04/22 03:47:57;;;;;;;17.23;12.60;;;256.90;1868.80;;;;;;5055804;28;20355;-70
2021/04/22 03:50:23;;;;;;;22.42;14.68;;;256.90;1868.80;;;;;;5055922;28;20369;-70
2021/04/22 03:52:50;;;;;;;21.63;14.40;;;256.80;1894.40;;;;;;5055790;28;20427;-71
2021/04/22 03:55:19;;;;;;;21.55;14.98;;;256.70;1894.40;;;;;;5055873;28;20485;-71
2021/04/22 03:57:45;;;;;;;22.15;13.93;;;256.90;1868.80;;;;;;5055708;28;20349;-70
2021/04/22 04:00:15;;;;;;;24.95;14.52;;;256.80;1868.80;;;;;;5055767;28;20361;-71
2021/04/22 04:02:41;;;;;;;23.60;15.95;;;256.60;1920.00;;;;;;5055483;28;20398;-71
2021/04/22 04:05:08;;;;;;;24.55;17.55;;;256.80;1894.40;;;;;;5055669;28;20482;-71
2021/04/22 04:07:35;;;;;;;22.15;16.80;;;256.70;1894.40;;;;;;5055806;28;20377;-71
2021/04/22 04:10:01;;;;;;;20.95;15.98;;;256.70;1894.40;;;;;;5055527;28;20354;-70
2021/04/22 04:12:28;;;;;;;22.30;16.35;;;256.80;1894.40;;;;;;5055765;28;20335;-70
2021/04/22 04:14:55;;;;;;;25.77;14.50;;;256.70;1894.40;;;;;;5055359;28;20361;-71
2021/04/22 04:17:21;;;;;;;21.75;13.65;;;256.60;1920.00;;;;;;5055291;28;20335;-71
2021/04/22 04:19:47;;;;;;;26.58;16.23;;;256.60;1920.00;;;;;;5055334;28;20407;-71
2021/04/22 04:22:13;;;;;;;23.42;15.70;;;256.60;1920.00;;;;;;5055321;28;20424;-70
2021/04/22 04:24:39;;;;;;;21.63;13.98;;;256.60;1920.00;;;;;;5055266;28;20335;-70
2021/04/22 04:27:06;;;;;;;15.60;12.38;;;256.80;1894.40;;;;;;5055430;28;20449;-71
2021/04/22 04:29:32;;;;;;;22.73;11.98;;;256.80;1920.00;;;;;;5054535;28;20392;-70
2021/04/22 04:31:58;;;;;;;17.30;11.52;;;256.70;1945.60;;;;;;5055133;28;20358;-70
2021/04/22 04:34:24;;;;;;;18.33;10.90;;;256.80;1920.00;;;;;;5055068;28;20366;-70
2021/04/22 04:36:50;;;;;;;13.63;9.63;;;256.80;1920.00;;;;;;5055051;28;20357;-71
2021/04/22 04:39:16;;;;;;;16.30;10.02;;;256.80;1920.00;;;;;;5055337;28;20406;-70
2021/04/22 04:41:44;;;;;;;16.33;10.40;;;281.60;1945.60;;;;;;5054897;28;20466;-71
2021/04/22 04:44:11;;;;;;;15.75;10.02;;;281.70;1920.00;;;;;;5055195;28;20543;-70
2021/04/22 04:46:38;;;;;;;15.85;10.02;;;281.70;1920.00;;;;;;5054838;28;20366;-70
2021/04/22 04:49:05;;;;;;;14.77;10.23;;;281.70;1920.00;;;;;;5054764;28;20440;-70
2021/04/22 04:51:31;;;;;;;17.98;11.65;;;281.70;1920.00;;;;;;5054758;28;20347;-70
2021/04/22 04:53:58;;;;;;;21.30;13.57;;;281.80;1920.00;;;;;;5054649;28;20369;-70
2021/04/22 04:56:24;;;;;;;19.77;12.60;;;281.80;1920.00;;;;;;5054606;28;20351;-70
2021/04/22 04:58:50;;;;;;;23.52;13.20;;;281.80;1894.40;;;;;;5054590;28;20417;-71
2021/04/22 05:01:17;;;;;;;19.92;11.57;;;282.00;1894.40;;;;;;5054559;28;20351;-71
2021/04/22 05:03:43;;;;;;;22.75;13.60;;;282.00;1894.40;;;;;;5054376;28;20375;-71
2021/04/22 05:06:09;;;;;;;26.40;14.80;;;282.10;1894.40;;;;;;5054465;28;20452;-70
2021/04/22 05:08:35;;;;;;;17.90;12.30;;;282.10;1894.40;;;;;;5054406;28;20377;-70
2021/04/22 05:11:02;;;;;;;24.42;11.88;;;282.20;1894.40;;;;;;5054397;28;20339;-70
2021/04/22 05:13:28;;;;;;;30.08;11.43;;;282.30;1894.40;;;;;;5054580;28;20347;-70
2021/04/22 05:15:56;;;;;;;15.75;10.30;;;282.40;1894.40;;;;;;5054213;28;20430;-71
2021/04/22 05:18:23;;;;;;;15.10;11.15;;;282.30;1894.40;;;;;;5054182;28;20382;-70
2021/04/22 05:20:49;;;;;;;18.50;12.00;;;282.50;1894.40;;;;;;5054467;28;20411;-71
2021/04/22 05:23:15;;;;;;;17.23;11.38;;;282.50;1894.40;;;;;;5054164;28;20485;-70
2021/04/22 05:25:41;;;;;;;16.48;11.45;;;307.20;1920.00;;;;;;5054128;28;20358;-70
2021/04/22 05:28:07;;;;;;;15.75;12.02;;;282.50;1920.00;;;;;;5053961;28;20423;-72
2021/04/22 05:30:33;;;;;;;17.40;12.57;;;307.20;1945.60;;;;;;5053995;28;20448;-70
2021/04/22 05:32:59;;;;;;;23.15;13.93;;;307.20;1945.60;;;;;;5054008;28;20374;-70
2021/04/22 05:35:25;;;;;;;19.15;12.63;;;307.30;1945.60;;;;;;5053895;28;20027;-70
2021/04/22 05:37:52;;;;;;;17.02;12.65;;;307.40;1945.60;;;;;;5053957;28;20483;-70
2021/04/22 05:40:19;;;;;;;21.83;13.25;;;307.40;1945.60;;;;;;5053381;28;20343;-70
2021/04/22 05:42:46;;;;;;;19.55;12.55;;;307.60;1945.60;;;;;;5053460;28;20481;-70
2021/04/22 05:45:16;;;;;;;17.70;12.63;;;307.70;1945.60;;;;;;5053748;28;20401;-71
2021/04/22 05:47:47;;;;;;;22.15;13.35;;;307.70;1945.60;;;;;;5053890;28;20473;-70
2021/04/22 05:50:15;;;;;;;18.25;10.80;;;307.90;1920.00;;;;;;5053988;28;20542;-71
2021/04/22 05:52:41;;;;;;;19.77;12.98;;;307.90;1894.40;;;;;;5053934;28;20365;-69
2021/04/22 05:55:08;;;;;;;19.45;12.35;;;308.00;1894.40;;;;;;5053686;28;20424;-69
2021/04/22 05:57:34;;;;;;;16.08;9.98;;;308.00;1894.40;;;;;;5053667;28;20362;-70
2021/04/22 06:00:01;;;;;;;15.65;10.50;;;332.80;1894.40;;;;;;5053540;28;20365;-70
2021/04/22 06:02:27;;;;;;;18.02;9.93;;;332.90;1894.40;;;;;;5053621;28;20365;-71
2021/04/22 06:04:53;;;;;;;13.60;9.73;;;333.10;1868.80;;;;;;5053315;28;20390;-69
2021/04/22 06:07:19;;;;;;;11.98;9.43;;;333.20;1868.80;;;;;;5053669;28;20365;-70
2021/04/22 06:13:08;;;;;;;9.55;7.50;;;333.60;1792.00;;;;;;5053511;28;20024;-71
2021/04/22 06:15:35;;;;;;;12.48;8.65;;;358.60;1766.40;;;;;;5053353;28;20413;-71
2021/04/22 06:18:01;;;;;;;10.13;7.97;;;358.90;1740.80;;;;;;5053336;28;20418;-70
2021/04/22 06:20:27;;;;;;;9.05;6.18;;;359.10;1689.60;;;;;;5053303;28;20520;-71
2021/04/22 06:22:53;;;;;;;16.38;14.65;;;384.30;1612.80;;;;;;5053304;28;20339;-70
2021/04/22 06:25:21;;;;;;;31.85;23.20;;;410.20;1510.40;;;;;;5053272;28;20450;-70
2021/04/22 06:27:47;;;;;;;11.23;8.38;;;461.00;1356.80;;;;;;5053209;28;20462;-70
2021/04/22 06:30:15;;;;;;;10.95;6.68;;;486.70;1280.00;;;;;;5053502;28;20459;-70
2021/04/22 06:32:41;;;;;;;7.10;6.40;;;512.00;1203.20;;;;;;5053139;28;20408;-70
2021/04/22 06:35:09;;;;;;;13.13;6.72;;;487.30;1203.20;;;;;;5053149;28;20414;-70
2021/04/22 06:37:35;;;;;;;6.75;5.45;;;486.80;1228.80;;;;;;5053083;28;20365;-74
2021/04/22 06:40:04;;;;;;;8.35;5.45;;;461.30;1280.00;;;;;;5053112;28;20494;-73
2021/04/22 06:42:30;;;;;;;6.53;5.28;;;436.10;1356.80;;;;;;5052994;28;20419;-72
2021/04/22 06:44:56;;;;;;;6.55;5.47;;;435.40;1382.40;;;;;;5053160;28;20021;-71
2021/04/22 06:47:22;;;;;;;8.40;6.38;;;435.20;1408.00;;;;;;5053045;28;20025;-71
2021/04/22 06:49:49;;;;;;;7.90;6.65;;;410.40;1433.60;;;;;;5035518;28;20029;-71
2021/04/22 06:52:17;;;;;;;9.38;6.43;;;410.50;1433.60;;;;;;5054169;28;20433;-72
2021/04/22 06:54:43;;;;;;;10.10;6.68;;;410.50;1433.60;;;;;;5056891;28;20373;-75
2021/04/22 06:57:09;;;;;;;28.45;23.70;;;410.50;1408.00;;;;;;5056853;28;20441;-71
2021/04/22 06:59:35;;;;;;;11.25;7.63;;;435.20;1433.60;;;;;;5056740;28;20396;-71
2021/04/22 07:02:02;;;;;;;7.30;6.28;;;435.20;1433.60;;;;;;5056822;28;20362;-73
2021/04/22 07:04:28;;;;;;;7.28;5.25;;;435.20;1408.00;;;;;;5056862;28;20409;-71
2021/04/22 07:06:54;;;;;;;6.65;5.00;;;435.20;1356.80;;;;;;5056742;28;20474;-71
2021/04/22 07:09:20;;;;;;;6.30;5.18;;;435.20;1382.40;;;;;;5056663;28;20350;-70
2021/04/22 07:11:46;;;;;;;11.40;7.47;;;435.30;1408.00;;;;;;5056521;28;20365;-72
2021/04/22 07:14:12;;;;;;;7.32;4.40;;;435.30;1356.80;;;;;;5056491;28;20447;-71
2021/04/22 07:16:38;;;;;;;5.53;4.35;;;435.40;1356.80;;;;;;5056497;28;20339;-70
2021/04/22 07:19:06;;;;;;;7.93;5.30;;;435.50;1356.80;;;;;;5056341;28;20408;-70
2021/04/22 07:21:32;;;;;;;6.35;4.20;;;435.50;1356.80;;;;;;5056380;28;20366;-70
2021/04/22 07:23:58;;;;;;;5.95;4.45;;;435.50;1356.80;;;;;;5056467;28;20495;-73
2021/04/22 07:26:24;;;;;;;5.90;3.58;;;435.70;1331.20;;;;;;5056347;28;20404;-70
2021/04/22 07:28:51;;;;;;;7.68;4.20;;;435.70;1305.60;;;;;;5056141;28;20377;-72
2021/04/22 07:31:17;;;;;;;6.75;5.38;;;435.80;1280.00;;;;;;5056415;28;20028;-70
2021/04/22 07:33:44;;;;;;;23.25;17.30;;;435.80;1305.60;;;;;;5056100;28;20483;-70
2021/04/22 07:36:10;;;;;;;6.15;4.60;;;436.00;1331.20;;;;;;5056158;28;20472;-71
2021/04/22 07:38:37;;;;;;;6.75;4.75;;;436.10;1280.00;;;;;;5056152;28;20027;-72
2021/04/22 07:41:03;;;;;;;5.22;3.90;;;436.10;1305.60;;;;;;5056288;28;20543;-70
2021/04/22 07:43:29;;;;;;;5.30;4.30;;;460.80;1305.60;;;;;;5056118;28;20025;-78
2021/04/22 07:45:56;;;;;;;5.65;4.70;;;460.80;1305.60;;;;;;5056084;28;20454;-72
2021/04/22 07:48:22;;;;;;;6.93;4.03;;;460.80;1280.00;;;;;;5055811;28;20488;-70
2021/04/22 07:50:48;;;;;;;5.93;3.58;;;460.80;1254.40;;;;;;5055829;28;20404;-71
2021/04/22 07:53:14;;;;;;;6.80;4.10;;;460.80;1254.40;;;;;;5055806;28;20378;-72
2021/04/22 07:55:44;;;;;;;7.20;4.78;;;460.90;1228.80;;;;;;5055810;28;20380;-72
2021/04/22 07:58:12;;;;;;;8.18;4.90;;;460.90;1228.80;;;;;;5038156;28;20404;-72
2021/04/22 08:00:40;;;;;;;7.32;3.95;;;460.90;1228.80;;;;;;5055669;28;20369;-72
2021/04/22 08:03:06;;;;;;;6.07;4.20;;;460.90;1177.60;;;;;;5055416;28;20432;-71
2021/04/22 08:05:36;;;;;;;5.93;5.00;;;460.90;1228.80;;;;;;5054717;28;20406;-72
2021/04/22 08:08:04;;;;;;;9.60;7.00;;;461.10;1203.20;;;;;;5055414;28;20035;-71
2021/04/22 08:10:33;;;;;;;26.13;20.20;;;461.20;1177.60;;;;;;5055777;28;20416;-72
2021/04/22 08:13:02;;;;;;;7.13;4.22;;;461.10;1177.60;;;;;;5055695;28;20405;-71
2021/04/22 08:15:28;;;;;;;7.28;3.67;;;461.20;1177.60;;;;;;5055415;28;20381;-71
2021/04/22 08:17:54;;;;;;;8.55;3.28;;;461.50;1177.60;;;;;;5055932;28;20085;-71
2021/04/22 08:20:25;;;;;;;5.18;3.90;;;461.40;1152.00;;;;;;5055326;28;20025;-74
2021/04/22 08:22:53;;;;;;;4.75;3.85;;;461.40;1177.60;;;;;;5055220;28;20369;-71
2021/04/22 08:25:25;;;;;;;5.40;4.18;;;461.50;1177.60;;;;;;5055230;28;20454;-72
2021/04/22 08:27:53;;;;;;;9.32;3.80;;;461.50;1152.00;;;;;;5037293;28;20454;-72
2021/04/22 08:31:00;;;;;;;5.50;3.70;;;461.50;1152.00;;;;;;5054987;28;20377;-72
2021/04/22 08:33:28;;;;;;;4.85;3.58;;;461.50;1152.00;;;;;;5054674;28;20409;-72
2021/04/22 08:35:54;;;;;;;5.95;4.38;;;461.50;1126.40;;;;;;5055048;28;20370;-73
2021/04/22 08:38:22;;;;;;;9.70;5.03;;;461.60;1126.40;;;;;;5054973;28;20381;-71
2021/04/22 08:40:50;;;;;;;8.45;5.70;;;461.50;1126.40;;;;;;5056100;28;20063;-84
2021/04/22 08:43:17;;;;;;;13.30;11.27;;;461.60;1152.00;;;;;;5055368;28;20032;-73
2021/04/22 08:45:44;;;;;;;63.28;54.28;;;461.60;1152.00;;;;;;5054807;28;20365;-72
2021/04/22 08:48:11;;;;;;;17.98;14.32;;;461.60;1126.40;;;;;;5054685;28;20487;-73
2021/04/22 08:50:41;;;;;;;9.45;4.60;;;461.70;1126.40;;;;;;5054958;28;20370;-87
2021/04/22 08:53:12;;;;;;;7.30;3.95;;;486.40;1126.40;;;;;;5054914;28;20392;-76
2021/04/22 08:55:38;;;;;;;4.47;3.40;;;461.60;1100.80;;;;;;5055233;28;20372;-75
2021/04/22 08:58:07;;;;;;;5.65;4.03;;;461.60;1177.60;;;;;;5054667;28;20428;-72
2021/04/22 09:00:46;;;;;;;8.43;4.15;;;461.60;1126.40;;;;;;5054771;28;20389;-73
2021/04/22 09:03:12;;;;;;;5.57;4.50;;;461.60;1126.40;;;;;;5054236;28;20421;-70
2021/04/22 09:05:39;;;;;;;7.93;4.60;;;461.60;1126.40;;;;;;5054374;28;20361;-70
2021/04/22 09:08:06;;;;;;;10.50;5.00;;;461.60;1152.00;;;;;;5054455;28;20402;-77
2021/04/22 09:10:32;;;;;;;9.18;4.53;;;461.60;1152.00;;;;;;5054347;28;20426;-72
2021/04/22 09:13:08;;;;;;;6.43;5.78;;;486.40;1152.00;;;;;;5054470;28;20424;-72
2021/04/22 09:15:37;;;;;;;8.35;6.80;;;486.40;1126.40;;;;;;5054214;28;20457;-72
2021/04/22 09:18:17;;;;;;;10.75;9.05;;;486.40;1100.80;;;;;;5054068;28;20493;-73
2021/04/22 09:20:50;;;;;;;85.72;64.70;;;486.40;1152.00;;;;;;5054274;28;20369;-74
2021/04/22 09:23:19;;;;;;;98.68;88.00;;;486.40;1100.80;;;;;;5054016;28;20373;-73
2021/04/22 09:25:57;;;;;;;9.45;6.28;;;486.40;1126.40;;;;;;5054339;28;20024;-73
2021/04/22 09:28:38;;;;;;;7.38;5.75;;;486.40;1126.40;;;;;;5053956;28;20470;-73
2021/04/22 09:31:04;;;;;;;8.27;5.32;;;486.40;1126.40;;;;;;5054258;28;20444;-73
2021/04/22 09:33:33;;;;;;;9.68;5.28;;;461.70;1075.20;;;;;;5054040;28;20446;-74
2021/04/22 09:36:11;;;;;;;19.70;6.15;;;461.70;1100.80;;;;;;5053792;28;20358;-78
2021/04/22 09:38:39;;;;;;;7.15;5.40;;;486.40;1152.00;;;;;;5035938;28;20465;-73
2021/04/22 09:41:16;;;;;;;7.10;5.80;;;486.50;1126.40;;;;;;5054300;28;20370;-73
2021/04/22 09:43:43;;;;;;;6.03;5.05;;;486.60;1100.80;;;;;;5053893;28;20361;-72
2021/04/22 09:46:20;;;;;;;10.13;6.68;;;486.60;1126.40;;;;;;5053721;28;20021;-72
2021/04/22 09:48:46;;;;;;;10.05;5.55;;;486.80;1152.00;;;;;;5053566;28;20381;-74
2021/04/22 09:51:25;;;;;;;7.70;5.05;;;486.80;1100.80;;;;;;5053502;28;20338;-74
2021/04/22 09:54:09;;;;;;;10.05;4.60;;;486.80;1049.60;;;;;;5053599;28;20480;-74
2021/04/22 09:56:39;;;;;;;;;;;486.80;1075.20;;;;;;5054032;28;20363;-74
2021/04/22 09:59:09;;;;;;;10.88;7.20;;;486.80;1100.80;;;;;;5053633;28;20384;-72
2021/04/22 10:01:35;;;;;;;6.55;4.65;;;486.80;1075.20;;;;;;5053666;28;20416;-73
2021/04/22 10:04:02;;;;;;;6.05;5.05;;;486.90;1075.20;;;;;;5053364;28;20540;-72
2021/04/22 10:06:42;;;;;;;12.07;5.63;;;486.90;1049.60;;;;;;5053372;28;20361;-73
2021/04/22 10:09:09;;;;;;;11.65;5.60;;;487.00;1075.20;;;;;;5053343;28;20412;-71
2021/04/22 10:11:51;;;;;;;11.65;5.88;;;487.00;1049.60;;;;;;5053277;28;20378;-73
2021/04/22 10:14:29;;;;;;;9.52;4.95;;;487.00;1049.60;;;;;;5053327;28;20362;-72
2021/04/22 10:16:55;;;;;;;9.60;5.40;;;487.10;1024.00;;;;;;5053666;28;20366;-72
2021/04/22 10:19:21;;;;;;;8.25;5.20;;;486.90;998.40;;;;;;5053263;28;20025;-73
2021/04/22 10:21:47;;;;;;;7.75;5.25;;;486.90;1049.60;;;;;;5053486;28;20403;-72
2021/04/22 10:24:15;;;;;;;7.35;5.68;;;486.90;998.40;;;;;;5053145;28;20481;-72
2021/04/22 10:26:43;;;;;;;8.65;5.43;;;486.90;998.40;;;;;;5053225;28;20369;-71
2021/04/22 10:29:09;;;;;;;5.57;4.05;;;487.00;1024.00;;;;;;5057232;28;20374;-72
2021/04/22 10:31:37;;;;;;;8.88;4.57;;;487.00;972.80;;;;;;5058010;28;20365;-72
2021/04/22 10:34:03;;;;;;;11.65;4.10;;;487.10;998.40;;;;;;5039366;28;20361;-73
2021/04/22 10:36:31;;;;;;;10.05;3.90;;;487.10;998.40;;;;;;5057216;28;20013;-73
2021/04/22 10:38:59;;;;;;;5.72;4.10;;;487.10;972.80;;;;;;5057346;28;20017;-72
2021/04/22 10:41:30;;;;;;;8.15;3.75;;;487.10;972.80;;;;;;5057143;28;20373;-73
2021/04/22 10:43:58;;;;;;;7.70;4.07;;;487.20;1024.00;;;;;;5057848;28;20353;-72
2021/04/22 10:46:24;;;;;;;5.70;4.18;;;487.20;1024.00;;;;;;5057032;28;20465;-73
2021/04/22 10:48:51;;;;;;;5.60;4.03;;;512.00;998.40;;;;;;5057245;28;20409;-74
2021/04/22 10:51:17;;;;;;;7.15;4.15;;;512.10;998.40;;;;;;5057005;28;20354;-71
2021/04/22 10:53:43;;;;;;;7.10;4.32;;;512.10;998.40;;;;;;5057296;28;20013;-73
2021/04/22 10:56:10;;;;;;;5.40;4.85;;;512.10;998.40;;;;;;5056996;28;20396;-72
2021/04/22 10:58:40;;;;;;;5.40;3.80;;;512.20;1024.00;;;;;;5057187;28;20342;-72
2021/04/22 11:01:12;;;;;;;7.53;3.88;;;512.10;972.80;;;;;;5056774;28;20393;-72
2021/04/22 11:03:46;;;;;;;6.00;4.28;;;512.20;972.80;;;;;;5056613;28;20504;-74
2021/04/22 11:06:18;;;;;;;6.63;3.92;;;512.40;998.40;;;;;;5057049;28;20357;-72
2021/04/22 11:08:50;;;;;;;8.50;4.07;;;512.50;947.20;;;;;;5056920;28;20471;-74
2021/04/22 11:11:33;;;;;;;12.65;3.95;;;512.50;947.20;;;;;;5057412;28;20319;-72
2021/04/22 11:14:09;;;;;;;8.20;3.17;;;512.40;921.60;;;;;;5057397;28;20382;-73
2021/04/22 11:16:38;;;;;;;6.20;2.80;;;512.30;896.00;;;;;;5038765;28;20361;-73
2021/04/22 11:19:25;;;;;;;11.85;3.78;;;512.30;921.60;;;;;;5056334;28;20381;-74
2021/04/22 11:21:57;;;;;;;4.45;2.83;;;512.30;921.60;;;;;;5056711;28;20499;-73
2021/04/22 11:24:59;;;;;;;4.25;3.03;;;512.40;896.00;;;;;;5056816;28;20358;-74
2021/04/22 11:27:28;;;;;;;4.85;3.58;;;512.50;947.20;;;;;;5052627;28;20370;-73
2021/04/22 11:30:03;;;;;;;5.28;3.78;;;512.40;896.00;;;;;;5056312;28;20358;-71
2021/04/22 11:32:35;;;;;;;8.07;3.95;;;512.50;972.80;;;;;;5056539;28;20453;-71
2021/04/22 11:35:16;;;;;;;5.07;3.47;;;512.60;896.00;;;;;;5056060;28;20347;-72
2021/04/22 11:37:46;;;;;;;4.82;3.38;;;512.50;947.20;;;;;;5055891;28;20424;-73
2021/04/22 11:40:35;;;;;;;8.80;3.75;;;512.50;870.40;;;;;;5056767;28;20353;-72
2021/04/22 11:43:03;;;;;;;5.13;3.97;;;512.30;921.60;;;;;;5038070;28;20393;-72
2021/04/22 11:45:31;;;;;;;4.68;3.65;;;512.50;921.60;;;;;;5055671;28;20351;-72
2021/04/22 11:48:11;;;;;;;7.57;3.70;;;512.60;947.20;;;;;;5055497;28;20377;-73
2021/04/22 11:50:46;;;;;;;7.97;3.03;;;512.70;947.20;;;;;;5056028;28;20415;-73
2021/04/22 11:53:13;;;;;;;4.57;3.53;;;512.70;896.00;;;;;;5055969;28;20426;-73
2021/04/22 11:55:52;;;;;;;7.60;3.42;;;512.70;870.40;;;;;;5055812;28;20343;-72
2021/04/22 11:58:21;;;;;;;5.18;3.03;;;512.70;921.60;;;;;;5055702;28;20362;-73
2021/04/22 12:00:50;;;;;;;5.00;2.88;;;512.80;870.40;;;;;;5055633;28;20450;-73
2021/04/22 12:03:28;;;;;;;5.30;3.80;;;512.80;896.00;;;;;;5055569;28;20358;-74
2021/04/22 12:05:56;;;;;;;6.28;3.72;;;512.90;870.40;;;;;;5055594;28;20456;-73
2021/04/22 12:08:38;;;;;;;8.48;3.38;;;537.60;921.60;;;;;;5055558;28;20378;-73
2021/04/22 12:11:07;;;;;;;5.63;4.00;;;512.90;896.00;;;;;;5055635;28;20381;-73
2021/04/22 12:13:35;;;;;;;5.22;3.42;;;512.90;947.20;;;;;;5055485;28;20362;-72
2021/04/22 12:16:03;;;;;;;10.05;4.13;;;537.60;921.60;;;;;;5055490;28;20516;-72
2021/04/22 12:18:35;;;;;;;6.97;4.28;;;512.70;896.00;;;;;;5055338;28;20396;-73